Time;durP1;ratioP1;P1;durP2;ratioP2;P2;SDS_P1;SDS_P2;PMS_P1;PMS_P2;Temp;Humidity;BMP_temperature;BMP_pressure;BME280_temperature;BME280_humidity;BME280_pressure;Samples;Min_cycle;Max_cycle;Signal;HPM_P1;HPM_P2
2023/03/10 00:02:22;;;;;;;;;;;;;;;16.79;34.79;97941.41;4512451;31;33970;-83
2023/03/10 00:04:51;;;;;;;;;;;;;;;16.94;34.51;97930.44;4514780;31;34293;-84
2023/03/10 00:07:19;;;;;;;;;;;;;;;16.86;34.48;97924.59;4498948;31;32958;-82
2023/03/10 00:09:46;;;;;;;;;;;;;;;16.86;34.53;97923.72;4513463;31;34982;-86
2023/03/10 00:12:14;;;;;;;;;;;;;;;17.02;34.14;97925.78;4505560;31;33939;-84
2023/03/10 00:14:42;;;;;;;;;;;;;;;16.95;34.24;97921.66;4514140;31;34377;-84
2023/03/10 00:17:09;;;;;;;;;;;;;;;16.93;34.27;97925.22;4512549;31;33639;-85
2023/03/10 00:19:36;;;;;;;;;;;;;;;16.89;34.33;97919.22;4514075;31;34640;-85
2023/03/10 00:22:04;;;;;;;;;;;;;;;16.71;34.53;97919.81;4514128;31;33726;-83
2023/03/10 00:24:31;;;;;;;;;;;;;;;16.80;34.35;97918.69;4514075;31;34862;-84
2023/03/10 00:26:58;;;;;;;;;;;;;;;16.75;34.35;97921.47;4509679;31;33327;-85
2023/03/10 00:29:27;;;;;;;;;;;;;;;16.76;34.28;97924.03;4513663;31;33892;-83
2023/03/10 00:31:54;;;;;;;;;;;;;;;16.70;34.39;97912.84;4514424;31;33889;-84
2023/03/10 00:34:21;;;;;;;;;;;;;;;16.52;34.70;97924.78;4513897;31;34302;-82
2023/03/10 00:36:50;;;;;;;;;;;;;;;16.43;35.04;97919.81;4513156;31;33575;-85
2023/03/10 00:39:17;;;;;;;;;;;;;;;16.46;34.91;97911.88;4509914;31;34328;-83
2023/03/10 00:41:45;;;;;;;;;;;;;;;16.45;34.95;97911.03;4514253;31;34364;-83
2023/03/10 00:44:12;;;;;;;;;;;;;;;16.56;34.67;97907.22;4513808;31;34970;-82
2023/03/10 00:46:39;;;;;;;;;;;;;;;16.62;34.42;97899.16;4511493;31;32040;-85
2023/03/10 00:49:09;;;;;;;;;;;;;;;16.29;35.21;97907.16;4513855;31;34659;-84
2023/03/10 00:51:36;;;;;;;;;;;;;;;16.32;35.29;97907.06;4507085;31;32776;-82
2023/03/10 00:54:03;;;;;;;;;;;;;;;16.39;34.91;97895.50;4515391;31;34310;-83
2023/03/10 00:56:31;;;;;;;;;;;;;;;16.30;35.03;97893.19;4516089;31;33987;-82
2023/03/10 00:58:58;;;;;;;;;;;;;;;16.25;35.09;97897.69;4515064;31;34177;-86
2023/03/10 01:01:27;;;;;;;;;;;;;;;16.30;35.12;97890.56;4516014;31;34963;-83
2023/03/10 01:03:56;;;;;;;;;;;;;;;16.09;35.56;97885.97;4504475;31;35405;-84
2023/03/10 01:06:24;;;;;;;;;;;;;;;16.21;35.36;97885.59;4514780;31;33246;-84
2023/03/10 01:08:51;;;;;;;;;;;;;;;15.96;35.86;97878.50;4515785;31;35171;-84
2023/03/10 01:11:22;;;;;;;;;;;;;;;16.01;35.83;97881.81;4501931;31;35277;-84
2023/03/10 01:13:49;;;;;;;;;;;;;;;16.23;35.53;97883.81;4515712;31;33977;-85
2023/03/10 01:16:16;;;;;;;;;;;;;;;15.92;36.06;97874.28;4515378;31;33546;-82
2023/03/10 01:18:44;;;;;;;;;;;;;;;15.92;36.06;97873.41;4515828;31;34202;-82
2023/03/10 01:21:18;;;;;;;;;;;;;;;15.91;35.95;97864.72;4515480;31;34199;-82
2023/03/10 01:23:46;;;;;;;;;;;;;;;16.12;35.66;97862.34;4516158;31;34224;-82
2023/03/10 01:26:15;;;;;;;;;;;;;;;16.07;35.74;97864.28;4508728;31;32898;-82
2023/03/10 01:28:45;;;;;;;;;;;;;;;16.02;36.01;97864.38;4514894;31;34314;-84
2023/03/10 01:31:13;;;;;;;;;;;;;;;16.02;36.00;97852.19;4515533;31;34136;-84
2023/03/10 01:33:41;;;;;;;;;;;;;;;15.92;36.05;97845.53;4515519;31;34335;-83
2023/03/10 01:36:09;;;;;;;;;;;;;;;16.03;35.81;97843.44;4515332;31;34399;-83
2023/03/10 01:38:37;;;;;;;;;;;;;;;16.10;35.66;97848.47;4515520;31;34525;-85
2023/03/10 01:41:05;;;;;;;;;;;;;;;15.96;35.98;97836.69;4503038;31;35031;-83
2023/03/10 01:43:35;;;;;;;;;;;;;;;15.90;36.27;97836.00;4515222;31;33901;-84
2023/03/10 01:46:03;;;;;;;;;;;;;;;16.02;36.07;97841.75;4515674;31;33213;-82
2023/03/10 01:48:31;;;;;;;;;;;;;;;16.09;35.94;97838.91;4513403;31;35064;-83
2023/03/10 01:50:59;;;;;;;;;;;;;;;15.78;36.60;97832.00;4513486;31;34453;-85
2023/03/10 01:53:26;;;;;;;;;;;;;;;15.86;36.57;97827.41;4515158;31;34574;-84
2023/03/10 01:55:55;;;;;;;;;;;;;;;16.03;36.26;97822.53;4514509;31;33326;-84
2023/03/10 01:58:23;;;;;;;;;;;;;;;16.13;35.87;97814.37;4512920;31;34106;-82
2023/03/10 02:00:51;;;;;;;;;;;;;;;15.96;36.18;97814.91;4513520;31;35131;-82
2023/03/10 02:03:20;;;;;;;;;;;;;;;15.86;36.63;97810.88;4514865;31;34216;-82
2023/03/10 02:05:50;;;;;;;;;;;;;;;15.87;36.60;97810.81;4514077;31;33199;-82
2023/03/10 02:08:18;;;;;;;;;;;;;;;15.97;36.42;97801.78;4515267;31;33499;-82
2023/03/10 02:10:45;;;;;;;;;;;;;;;15.84;36.66;97804.84;4515207;31;34022;-83
2023/03/10 02:13:13;;;;;;;;;;;;;;;15.72;37.07;97806.03;4514787;31;34218;-84
2023/03/10 02:15:40;;;;;;;;;;;;;;;15.85;36.82;97794.34;4515142;31;34218;-83
2023/03/10 02:18:09;;;;;;;;;;;;;;;15.91;36.62;97795.88;4513080;31;33840;-85
2023/03/10 02:20:39;;;;;;;;;;;;;;;15.87;36.64;97792.50;4515455;31;34475;-82
2023/03/10 02:23:07;;;;;;;;;;;;;;;15.95;36.58;97789.69;4515581;31;35459;-85
2023/03/10 02:25:40;;;;;;;;;;;;;;;15.94;36.54;97791.41;4515301;31;33045;-82
2023/03/10 02:28:08;;;;;;;;;;;;;;;16.04;36.31;97781.56;4511992;31;34053;-83
2023/03/10 02:30:48;;;;;;;;;;;;;;;16.13;36.07;97783.00;4514872;31;35220;-83
2023/03/10 02:33:17;;;;;;;;;;;;;;;16.12;35.99;97781.31;4514404;31;34576;-85
2023/03/10 02:35:44;;;;;;;;;;;;;;;16.09;36.14;97787.47;4514968;31;33716;-83
2023/03/10 02:38:12;;;;;;;;;;;;;;;16.01;36.30;97781.63;4515723;31;34185;-84
2023/03/10 02:40:40;;;;;;;;;;;;;;;15.97;36.21;97783.50;4512418;31;35224;-85
2023/03/10 02:43:17;;;;;;;;;;;;;;;15.79;36.71;97778.81;4510874;31;35298;-84
2023/03/10 02:45:46;;;;;;;;;;;;;;;15.71;36.91;97776.44;4511264;31;33414;-83
2023/03/10 02:48:15;;;;;;;;;;;;;;;15.84;36.70;97776.94;4501302;31;33981;-83
2023/03/10 02:50:42;;;;;;;;;;;;;;;15.49;37.35;97773.59;4512607;31;33844;-83
2023/03/10 02:53:11;;;;;;;;;;;;;;;15.48;37.25;97771.88;4514402;31;35042;-83
2023/03/10 02:55:38;;;;;;;;;;;;;;;15.51;37.32;97771.78;4515183;31;33047;-84
2023/03/10 02:58:06;;;;;;;;;;;;;;;15.53;37.39;97767.37;4515336;31;34537;-82
2023/03/10 03:00:37;;;;;;;;;;;;;;;15.47;37.58;97770.16;4514109;31;34026;-85
2023/03/10 03:03:05;;;;;;;;;;;;;;;15.41;37.76;97765.13;4508050;31;35045;-83
2023/03/10 03:05:33;;;;;;;;;;;;;;;15.28;38.14;97759.41;4513842;31;33343;-84
2023/03/10 03:08:00;;;;;;;;;;;;;;;15.29;38.38;97750.66;4515183;31;33993;-83
2023/03/10 03:10:27;;;;;;;;;;;;;;;15.23;38.76;97748.25;4506235;31;34349;-83
2023/03/10 03:12:55;;;;;;;;;;;;;;;15.22;38.83;97746.50;4506107;31;33822;-85
2023/03/10 03:15:23;;;;;;;;;;;;;;;15.25;39.01;97742.97;4515102;31;34018;-82
2023/03/10 03:17:53;;;;;;;;;;;;;;;15.46;38.50;97742.34;4512888;31;33979;-83
2023/03/10 03:20:20;;;;;;;;;;;;;;;15.39;38.38;97732.97;4514544;31;34117;-85
2023/03/10 03:22:48;;;;;;;;;;;;;;;15.47;38.41;97724.91;4515038;31;34311;-85
2023/03/10 03:25:16;;;;;;;;;;;;;;;15.46;38.55;97725.81;4514496;31;34250;-85
2023/03/10 03:27:44;;;;;;;;;;;;;;;15.57;38.40;97722.00;4514753;31;33903;-84
2023/03/10 03:30:13;;;;;;;;;;;;;;;15.67;38.14;97719.12;4504293;31;34218;-84
2023/03/10 03:32:41;;;;;;;;;;;;;;;15.67;38.23;97713.87;4513517;31;34516;-84
2023/03/10 03:35:13;;;;;;;;;;;;;;;15.63;38.08;97704.41;4514584;31;33508;-84
2023/03/10 03:37:40;;;;;;;;;;;;;;;15.84;37.96;97711.62;4514966;31;34164;-85
2023/03/10 03:40:11;;;;;;;;;;;;;;;15.21;39.36;97700.44;4509441;31;34237;-85
2023/03/10 03:42:41;;;;;;;;;;;;;;;15.45;38.68;97695.38;4514824;31;33722;-85
2023/03/10 03:45:09;;;;;;;;;;;;;;;15.50;38.27;97689.13;4514496;31;33660;-82
2023/03/10 03:47:36;;;;;;;;;;;;;;;15.47;38.01;97689.22;4508841;31;34690;-82
2023/03/10 03:50:05;;;;;;;;;;;;;;;15.39;38.17;97685.97;4513737;31;34382;-84
2023/03/10 03:52:32;;;;;;;;;;;;;;;15.55;37.81;97681.12;4513958;31;34181;-84
2023/03/10 03:55:00;;;;;;;;;;;;;;;15.23;38.42;97676.91;4513930;31;33882;-82
2023/03/10 03:57:28;;;;;;;;;;;;;;;15.17;38.73;97677.94;4514942;31;35519;-83
2023/03/10 03:59:55;;;;;;;;;;;;;;;15.33;38.41;97665.25;4514576;31;33732;-84
2023/03/10 04:02:22;;;;;;;;;;;;;;;15.16;38.65;97663.16;4514616;31;33825;-84
2023/03/10 04:04:51;;;;;;;;;;;;;;;14.99;39.08;97663.66;4515005;31;33112;-84
2023/03/10 04:07:20;;;;;;;;;;;;;;;14.98;39.42;97659.34;4512707;31;34308;-84
2023/03/10 04:09:48;;;;;;;;;;;;;;;15.06;39.26;97659.97;4514381;31;34499;-82
2023/03/10 04:12:16;;;;;;;;;;;;;;;15.21;39.16;97657.81;4513729;31;33662;-84
2023/03/10 04:14:44;;;;;;;;;;;;;;;15.23;38.91;97654.25;4514337;31;33313;-85
2023/03/10 04:17:12;;;;;;;;;;;;;;;15.14;39.31;97653.66;4513800;31;34289;-82
2023/03/10 04:19:39;;;;;;;;;;;;;;;15.04;39.54;97648.72;4509511;31;34376;-84
2023/03/10 04:22:07;;;;;;;;;;;;;;;14.82;40.27;97655.47;4514351;31;35062;-84
2023/03/10 04:24:38;;;;;;;;;;;;;;;15.04;39.89;97653.09;4514553;31;33491;-84
2023/03/10 04:27:08;;;;;;;;;;;;;;;15.20;39.52;97648.28;4512902;31;33872;-83
2023/03/10 04:29:35;;;;;;;;;;;;;;;15.25;39.18;97648.97;4501252;31;35265;-83
2023/03/10 04:32:03;;;;;;;;;;;;;;;15.26;39.11;97646.31;4499607;31;33888;-85
2023/03/10 04:34:32;;;;;;;;;;;;;;;15.32;38.87;97646.13;4512843;31;33654;-84
2023/03/10 04:37:00;;;;;;;;;;;;;;;15.09;39.42;97646.81;4510469;31;33883;-83
2023/03/10 04:39:27;;;;;;;;;;;;;;;15.03;39.82;97640.94;4514517;31;34853;-86
2023/03/10 04:41:55;;;;;;;;;;;;;;;15.02;39.96;97647.91;4514800;31;34612;-84
2023/03/10 04:44:22;;;;;;;;;;;;;;;14.97;40.06;97639.38;4514565;31;34162;-83
2023/03/10 04:46:58;;;;;;;;;;;;;;;14.91;40.45;97639.53;4513465;31;33975;-84
2023/03/10 04:49:25;;;;;;;;;;;;;;;15.03;40.35;97639.16;4507834;31;34280;-84
2023/03/10 04:51:53;;;;;;;;;;;;;;;14.92;40.48;97641.22;4514068;31;33980;-83
2023/03/10 04:54:21;;;;;;;;;;;;;;;14.92;40.68;97636.00;4514190;31;33417;-82
2023/03/10 04:56:48;;;;;;;;;;;;;;;14.95;40.59;97633.31;4513273;31;34874;-83
2023/03/10 04:59:15;;;;;;;;;;;;;;;14.99;40.48;97627.09;4513858;31;34139;-85
2023/03/10 05:01:43;;;;;;;;;;;;;;;14.83;40.89;97623.25;4513927;31;34230;-84
2023/03/10 05:04:10;;;;;;;;;;;;;;;14.98;40.49;97622.81;4514234;31;34113;-85
2023/03/10 05:06:37;;;;;;;;;;;;;;;14.87;40.95;97621.41;4507458;31;35047;-83
2023/03/10 05:09:05;;;;;;;;;;;;;;;14.86;41.00;97615.34;4513985;31;34306;-84
2023/03/10 05:11:33;;;;;;;;;;;;;;;14.92;40.62;97607.31;4514167;31;34252;-84
2023/03/10 05:14:00;;;;;;;;;;;;;;;14.75;40.93;97606.97;4513949;31;33240;-82
2023/03/10 05:16:28;;;;;;;;;;;;;;;14.89;40.79;97610.03;4506057;31;34834;-84
2023/03/10 05:18:55;;;;;;;;;;;;;;;14.82;40.84;97611.12;4511671;31;34394;-83
2023/03/10 05:21:23;;;;;;;;;;;;;;;14.92;40.60;97607.31;4513357;31;34099;-83
2023/03/10 05:23:51;;;;;;;;;;;;;;;15.01;40.06;97604.44;4513609;31;34023;-83
2023/03/10 05:26:18;;;;;;;;;;;;;;;15.08;39.52;97605.97;4513171;31;34533;-83
2023/03/10 05:28:46;;;;;;;;;;;;;;;14.91;39.93;97603.00;4513704;31;34114;-82
2023/03/10 05:31:14;;;;;;;;;;;;;;;15.02;39.83;97600.94;4512531;31;34224;-83
2023/03/10 05:33:42;;;;;;;;;;;;;;;15.05;39.87;97592.16;4496490;31;32872;-85
2023/03/10 05:36:10;;;;;;;;;;;;;;;15.00;39.69;97591.44;4497766;31;34074;-84
2023/03/10 05:38:38;;;;;;;;;;;;;;;15.07;39.60;97593.81;4502350;31;35048;-85
2023/03/10 05:41:09;;;;;;;;;;;;;;;15.09;39.50;97594.63;4515452;31;34234;-83
2023/03/10 05:43:37;;;;;;;;;;;;;;;15.11;39.33;97588.50;4515190;31;33775;-83
2023/03/10 05:46:05;;;;;;;;;;;;;;;14.96;39.85;97577.63;4506035;31;34919;-83
2023/03/10 05:48:33;;;;;;;;;;;;;;;15.00;39.98;97581.88;4516038;31;34398;-83
2023/03/10 05:51:06;;;;;;;;;;;;;;;14.91;40.32;97582.12;4502649;31;33979;-83
2023/03/10 05:53:33;;;;;;;;;;;;;;;15.01;40.36;97575.75;4515987;31;33411;-84
2023/03/10 05:56:05;;;;;;;;;;;;;;;15.05;40.34;97574.75;4510816;31;34700;-84
2023/03/10 05:58:32;;;;;;;;;;;;;;;15.18;39.99;97572.59;4515888;31;35481;-85
2023/03/10 06:01:00;;;;;;;;;;;;;;;15.30;39.85;97571.34;4515640;31;34254;-84
2023/03/10 06:03:45;;;;;;;;;;;;;;;15.08;40.44;97569.44;4515437;31;33378;-83
2023/03/10 06:06:13;;;;;;;;;;;;;;;15.29;40.26;97561.81;4514551;31;34951;-84
2023/03/10 06:08:41;;;;;;;;;;;;;;;15.41;40.13;97566.66;4515329;31;33794;-84
2023/03/10 06:11:10;;;;;;;;;;;;;;;15.53;40.03;97550.59;4515865;31;35076;-83
2023/03/10 06:13:37;;;;;;;;;;;;;;;15.69;39.69;97553.59;4510536;31;34261;-83
2023/03/10 06:16:05;;;;;;;;;;;;;;;15.63;39.88;97556.34;4515437;31;33258;-84
2023/03/10 06:18:32;;;;;;;;;;;;;;;15.80;39.86;97566.28;4514193;31;35081;-85
2023/03/10 06:21:02;;;;;;;;;;;;;;;15.73;40.20;97562.16;4514089;31;34952;-84
2023/03/10 06:23:30;;;;;;;;;;;;;;;15.94;40.26;97560.56;4508480;31;33417;-81
2023/03/10 06:25:58;;;;;;;;;;;;;;;15.87;40.57;97564.28;4513097;31;35226;-83
2023/03/10 06:28:31;;;;;;;;;;;;;;;15.97;40.73;97561.31;4515057;31;34884;-82
2023/03/10 06:30:59;;;;;;;;;;;;;;;16.06;40.52;97549.69;4515579;31;34385;-85
2023/03/10 06:33:27;;;;;;;;;;;;;;;15.84;41.37;97553.97;4514435;31;33796;-84
2023/03/10 06:35:54;;;;;;;;;;;;;;;15.26;43.34;97557.53;4491628;31;34272;-84
2023/03/10 06:38:22;;;;;;;;;;;;;;;15.74;42.40;97550.81;4498947;31;35309;-82
2023/03/10 06:40:49;;;;;;;;;;;;;;;15.76;42.54;97549.00;4484852;31;35096;-83
2023/03/10 06:43:16;;;;;;;;;;;;;;;15.95;42.22;97547.47;4499470;31;33507;-84
2023/03/10 06:45:44;;;;;;;;;;;;;;;15.80;42.59;97553.22;4485318;31;34123;-87
2023/03/10 06:48:12;;;;;;;;;;;;;;;16.22;41.78;97553.47;4474967;32;35140;-83
2023/03/10 06:50:40;;;;;;;;;;;;;;;14.54;45.90;97546.69;4469341;32;33732;-81
2023/03/10 06:53:08;;;;;;;;;;;;;;;15.29;44.07;97557.44;4474300;31;34472;-85
2023/03/10 06:55:36;;;;;;;;;;;;;;;14.48;46.10;97556.44;4498651;31;35228;-82
2023/03/10 06:58:03;;;;;;;;;;;;;;;14.38;46.16;97545.41;4499257;31;35058;-85
2023/03/10 07:00:30;;;;;;;;;;;;;;;14.40;46.21;97550.59;4500306;31;33989;-81
2023/03/10 07:02:58;;;;;;;;;;;;;;;15.37;43.92;97554.59;4494860;31;33315;-86
2023/03/10 07:05:26;;;;;;;;;;;;;;;15.57;43.95;97553.97;4515299;31;34115;-82
2023/03/10 07:07:54;;;;;;;;;;;;;;;15.73;43.45;97547.34;4515379;31;34888;-86
2023/03/10 07:10:21;;;;;;;;;;;;;;;16.06;42.82;97544.44;4501077;31;35062;-84
2023/03/10 07:12:53;;;;;;;;;;;;;;;16.22;42.70;97545.63;4515564;31;32950;-85
2023/03/10 07:15:21;;;;;;;;;;;;;;;16.19;42.84;97545.75;4515708;31;34108;-83
2023/03/10 07:17:49;;;;;;;;;;;;;;;15.54;44.77;97557.53;4500801;31;34462;-84
2023/03/10 07:20:16;;;;;;;;;;;;;;;15.98;43.89;97549.94;4515393;31;33426;-85
2023/03/10 07:22:44;;;;;;;;;;;;;;;15.12;46.30;97545.84;4515539;31;33437;-86
2023/03/10 07:25:11;;;;;;;;;;;;;;;16.04;44.00;97543.66;4515260;31;33955;-87
2023/03/10 07:27:38;;;;;;;;;;;;;;;16.33;43.64;97542.66;4515221;31;34308;-84
2023/03/10 07:30:06;;;;;;;;;;;;;;;16.44;43.35;97542.22;4515412;31;34170;-85
2023/03/10 07:32:33;;;;;;;;;;;;;;;15.08;47.90;97547.69;4512210;31;33316;-82
2023/03/10 07:35:00;;;;;;;;;;;;;;;16.30;45.66;97547.97;4515102;31;34682;-85
2023/03/10 07:37:28;;;;;;;;;;;;;;;15.09;48.71;97545.03;4514944;31;34047;-86
2023/03/10 07:39:55;;;;;;;;;;;;;;;16.03;46.50;97541.97;4514153;31;34717;-84
2023/03/10 07:42:22;;;;;;;;;;;;;;;15.91;46.96;97545.00;4515246;31;33713;-86
2023/03/10 07:44:50;;;;;;;;;;;;;;;16.24;46.58;97549.03;4514922;31;35105;-85
2023/03/10 07:47:17;;;;;;;;;;;;;;;16.30;46.46;97532.28;4514903;31;34833;-83
2023/03/10 07:49:45;;;;;;;;;;;;;;;15.99;47.42;97538.63;4515089;31;34312;-84
2023/03/10 07:52:14;;;;;;;;;;;;;;;16.29;46.63;97531.44;4515055;31;33462;-84
2023/03/10 07:54:43;;;;;;;;;;;;;;;16.67;45.60;97525.69;4513370;31;33587;-84
2023/03/10 07:57:13;;;;;;;;;;;;;;;16.64;45.70;97523.19;4514755;31;35137;-84
2023/03/10 07:59:40;;;;;;;;;;;;;;;15.97;46.90;97524.72;4514732;31;33798;-83
2023/03/10 08:02:10;;;;;;;;;;;;;;;16.51;45.95;97522.78;4513792;31;34112;-83
2023/03/10 08:04:37;;;;;;;;;;;;;;;16.60;45.71;97519.84;4513662;31;33570;-85
2023/03/10 08:07:05;;;;;;;;;;;;;;;16.31;46.20;97513.06;4513681;31;34332;-85
2023/03/10 08:09:32;;;;;;;;;;;;;;;16.58;45.61;97516.41;4515057;31;34198;-85
2023/03/10 08:12:00;;;;;;;;;;;;;;;16.84;44.92;97518.06;4514803;31;32654;-83
2023/03/10 08:14:28;;;;;;;;;;;;;;;17.02;44.55;97512.12;4514976;31;34843;-84
2023/03/10 08:16:55;;;;;;;;;;;;;;;17.06;44.45;97502.38;4514968;31;33817;-86
2023/03/10 08:19:23;;;;;;;;;;;;;;;16.16;46.17;97493.56;4513588;31;34040;-82
2023/03/10 08:21:53;;;;;;;;;;;;;;;17.29;43.80;97493.59;4513514;31;33500;-82
2023/03/10 08:24:20;;;;;;;;;;;;;;;17.83;42.75;97492.22;4513308;31;35010;-86
2023/03/10 08:26:47;;;;;;;;;;;;;;;17.10;44.00;97497.88;4514651;31;34311;-82
2023/03/10 08:29:15;;;;;;;;;;;;;;;17.24;43.52;97488.56;4514405;31;35145;-86
2023/03/10 08:31:42;;;;;;;;;;;;;;;17.43;43.04;97480.78;4514617;31;34319;-84
2023/03/10 08:34:10;;;;;;;;;;;;;;;17.85;42.41;97477.28;4514406;31;34243;-86
2023/03/10 08:36:37;;;;;;;;;;;;;;;17.03;44.11;97481.56;4513127;31;34101;-86
2023/03/10 08:39:05;;;;;;;;;;;;;;;16.90;44.42;97473.34;4514416;31;33632;-81
2023/03/10 08:41:45;;;;;;;;;;;;;;;16.84;44.77;97480.59;4514475;31;34126;-85
2023/03/10 08:44:14;;;;;;;;;;;;;;;17.18;43.91;97465.22;4514706;31;33955;-85
2023/03/10 08:46:42;;;;;;;;;;;;;;;17.16;44.14;97472.31;4514633;31;34120;-83
2023/03/10 08:49:13;;;;;;;;;;;;;;;16.81;45.04;97465.84;4514774;31;34303;-86
2023/03/10 08:51:41;;;;;;;;;;;;;;;17.30;43.94;97468.25;4499899;31;34180;-85
2023/03/10 08:54:15;;;;;;;;;;;;;;;17.94;43.00;97460.28;4500014;31;34222;-84
2023/03/10 08:56:42;;;;;;;;;;;;;;;18.06;42.45;97454.50;4514395;31;35012;-81
2023/03/10 08:59:10;;;;;;;;;;;;;;;17.30;43.75;97456.00;4514320;31;34024;-84
2023/03/10 09:01:37;;;;;;;;;;;;;;;17.80;42.88;97455.63;4514612;31;33466;-83
2023/03/10 09:04:05;;;;;;;;;;;;;;;17.20;43.92;97460.78;4514136;31;35085;-84
2023/03/10 09:06:33;;;;;;;;;;;;;;;18.14;42.13;97447.13;4500153;31;34988;-85
2023/03/10 09:09:00;;;;;;;;;;;;;;;17.79;42.68;97446.09;4482737;32;33989;-85
2023/03/10 09:11:30;;;;;;;;;;;;;;;17.96;42.25;97446.22;4482422;32;33266;-83
2023/03/10 09:13:58;;;;;;;;;;;;;;;17.32;43.61;97448.94;4484553;32;34010;-85
2023/03/10 09:16:27;;;;;;;;;;;;;;;17.91;42.72;97442.06;4484589;32;34421;-84
2023/03/10 09:18:55;;;;;;;;;;;;;;;17.64;43.52;97436.22;4484082;32;34518;-81
2023/03/10 09:21:22;;;;;;;;;;;;;;;17.28;44.23;97431.66;4490975;31;33697;-81
2023/03/10 09:23:51;;;;;;;;;;;;;;;17.10;44.50;97441.13;4516151;31;34409;-82
2023/03/10 09:26:19;;;;;;;;;;;;;;;16.87;45.73;97431.59;4501753;31;34154;-87
2023/03/10 09:28:48;;;;;;;;;;;;;;;16.92;45.44;97437.47;4516503;31;34275;-81
2023/03/10 09:31:20;;;;;;;;;;;;;;;16.91;45.64;97425.31;4516289;31;33426;-81
2023/03/10 09:33:48;;;;;;;;;;;;;;;16.80;46.62;97426.66;4515825;31;33761;-82
2023/03/10 09:36:15;;;;;;;;;;;;;;;17.69;44.55;97414.16;4504358;31;34129;-84
2023/03/10 09:38:43;;;;;;;;;;;;;;;17.85;44.72;97414.38;4500247;31;34423;-82
2023/03/10 09:41:29;;;;;;;;;;;;;;;17.48;45.75;97413.31;4499918;31;34190;-87
2023/03/10 09:44:18;;;;;;;;;;;;;;;17.23;46.15;97404.78;4500063;31;33948;-86
2023/03/10 09:47:00;;;;;;;;;;;;;;;18.33;43.83;97399.91;4500140;31;35372;-85
2023/03/10 09:49:31;;;;;;;;;;;;;;;17.89;44.91;97384.47;4485825;31;35113;-84
2023/03/10 09:51:58;;;;;;;;;;;;;;;17.39;46.13;97387.53;4485833;31;32967;-85
2023/03/10 09:54:50;;;;;;;;;;;;;;;17.34;46.67;97397.34;4485560;31;33847;-85
2023/03/10 09:57:17;;;;;;;;;;;;;;;16.81;48.11;97403.03;4496519;31;34408;-82
2023/03/10 09:59:45;;;;;;;;;;;;;;;16.94;48.58;97385.06;4501378;31;34357;-86
2023/03/10 10:02:44;;;;;;;;;;;;;;;17.34;47.65;97386.84;4501309;31;34015;-85
2023/03/10 10:05:19;;;;;;;;;;;;;;;16.99;48.38;97376.09;4476044;31;34199;-82
2023/03/10 10:07:48;;;;;;;;;;;;;;;16.34;50.75;97386.59;4501394;31;34392;-81
2023/03/10 10:10:17;;;;;;;;;;;;;;;17.66;47.75;97368.91;4501223;31;34475;-81
2023/03/10 10:12:45;;;;;;;;;;;;;;;17.12;48.83;97371.22;4501344;31;33637;-81
2023/03/10 10:15:14;;;;;;;;;;;;;;;16.92;50.03;97385.13;4501649;31;34950;-81
2023/03/10 10:17:46;;;;;;;;;;;;;;;18.62;45.65;97368.84;4501533;31;34849;-82
2023/03/10 10:20:26;;;;;;;;;;;;;;;17.40;48.44;97356.94;4502735;31;33647;-82
2023/03/10 10:22:53;;;;;;;;;;;;;;;17.43;48.57;97357.66;4501514;31;34511;-85
2023/03/10 10:25:21;;;;;;;;;;;;;;;18.31;46.50;97344.06;4514862;31;34979;-81
2023/03/10 10:27:51;;;;;;;;;;;;;;;18.59;45.79;97334.88;4487075;31;34889;-82
2023/03/10 10:30:24;;;;;;;;;;;;;;;18.89;44.70;97328.13;4499630;31;34024;-81
2023/03/10 10:33:12;;;;;;;;;;;;;;;19.71;42.84;97326.59;4505096;31;33421;-82
2023/03/10 10:35:40;;;;;;;;;;;;;;;20.25;41.45;97314.84;4514319;31;34106;-83
2023/03/10 10:38:08;;;;;;;;;;;;;;;19.64;41.77;97329.53;4515688;31;34652;-87
2023/03/10 10:40:48;;;;;;;;;;;;;;;19.58;40.90;97323.72;4515304;31;33655;-86
2023/03/10 10:43:17;;;;;;;;;;;;;;;19.68;39.99;97302.16;4515432;31;33291;-85
2023/03/10 10:45:44;;;;;;;;;;;;;;;20.08;39.16;97307.06;4515473;31;34459;-87
2023/03/10 10:48:35;;;;;;;;;;;;;;;20.41;38.11;97310.41;4514209;31;33677;-82
2023/03/10 10:51:03;;;;;;;;;;;;;;;20.70;37.67;97297.41;4507876;31;33751;-86
2023/03/10 10:53:34;;;;;;;;;;;;;;;20.15;38.87;97304.00;4515370;31;34110;-85
2023/03/10 10:56:05;;;;;;;;;;;;;;;20.70;38.18;97289.50;4508925;31;34840;-81
2023/03/10 10:58:34;;;;;;;;;;;;;;;19.75;39.81;97307.09;4499746;31;34993;-82
2023/03/10 11:01:02;;;;;;;;;;;;;;;19.96;39.91;97287.50;4499187;31;34347;-87
2023/03/10 11:03:34;;;;;;;;;;;;;;;19.82;40.33;97288.28;4499759;31;34488;-82
2023/03/10 11:06:21;;;;;;;;;;;;;;;20.40;38.84;97269.22;4499551;31;34023;-81
2023/03/10 11:08:52;;;;;;;;;;;;;;;20.08;39.38;97275.50;4499278;31;35076;-80
2023/03/10 11:11:25;;;;;;;;;;;;;;;20.56;38.57;97253.44;4508710;31;34231;-82
2023/03/10 11:13:55;;;;;;;;;;;;;;;20.29;39.01;97253.22;4515345;31;32919;-82
2023/03/10 11:16:23;;;;;;;;;;;;;;;20.57;38.54;97236.72;4515349;31;34291;-81
2023/03/10 11:18:51;;;;;;;;;;;;;;;20.16;39.30;97246.97;4515322;31;34448;-83
2023/03/10 11:21:24;;;;;;;;;;;;;;;20.62;38.18;97239.09;4513931;31;34317;-86
2023/03/10 11:24:09;;;;;;;;;;;;;;;20.46;38.60;97233.00;4513781;31;34270;-82
2023/03/10 11:26:36;;;;;;;;;;;;;;;19.50;40.20;97239.19;4513996;31;33980;-86
2023/03/10 11:29:22;;;;;;;;;;;;;;;19.73;39.77;97228.28;4515592;31;34306;-85
2023/03/10 11:31:53;;;;;;;;;;;;;;;20.03;39.44;97222.25;4515234;31;34051;-82
2023/03/10 11:34:30;;;;;;;;;;;;;;;19.98;39.28;97216.44;4515053;31;33879;-85
2023/03/10 11:37:00;;;;;;;;;;;;;;;20.60;38.42;97211.97;4513467;31;34215;-82
2023/03/10 11:39:33;;;;;;;;;;;;;;;20.54;38.31;97205.31;4515122;31;34152;-86
2023/03/10 11:42:26;;;;;;;;;;;;;;;20.97;38.03;97196.63;4502044;31;33939;-81
2023/03/10 11:44:54;;;;;;;;;;;;;;;20.92;38.04;97196.91;4497060;31;33189;-87
2023/03/10 11:47:33;;;;;;;;;;;;;;;21.31;37.46;97195.41;4499232;31;33741;-84
2023/03/10 11:50:04;;;;;;;;;;;;;;;21.14;38.36;97188.56;4499368;31;34440;-85
2023/03/10 11:52:32;;;;;;;;;;;;;;;21.25;37.43;97178.19;4484705;31;35043;-81
2023/03/10 11:55:04;;;;;;;;;;;;;;;20.44;38.83;97176.94;4485036;31;33609;-81
2023/03/10 11:57:34;;;;;;;;;;;;;;;20.08;39.73;97178.16;4499180;31;34967;-87
2023/03/10 12:00:04;;;;;;;;;;;;;;;20.91;38.50;97163.63;4484755;31;34406;-84
2023/03/10 12:02:40;;;;;;;;;;;;;;;21.02;38.16;97163.78;4485219;31;35035;-87
2023/03/10 12:05:21;;;;;;;;;;;;;;;20.61;39.14;97163.69;4485202;31;33312;-83
2023/03/10 12:07:49;;;;;;;;;;;;;;;20.93;38.55;97147.72;4498819;31;34881;-81
2023/03/10 12:10:18;;;;;;;;;;;;;;;20.60;38.79;97149.63;4485360;31;34185;-81
2023/03/10 12:12:46;;;;;;;;;;;;;;;20.68;39.14;97138.66;4512841;31;34148;-82
2023/03/10 12:15:18;;;;;;;;;;;;;;;19.88;40.00;97135.41;4514880;31;34310;-82
2023/03/10 12:17:45;;;;;;;;;;;;;;;20.16;39.78;97124.16;4500401;31;35177;-82
2023/03/10 12:20:16;;;;;;;;;;;;;;;20.16;39.91;97126.78;4500651;31;34822;-80
2023/03/10 12:22:49;;;;;;;;;;;;;;;19.63;40.35;97122.81;4506298;31;35017;-81
2023/03/10 12:25:25;;;;;;;;;;;;;;;19.62;40.77;97115.00;4514621;31;33233;-82
2023/03/10 12:28:12;;;;;;;;;;;;;;;19.85;40.92;97106.69;4515132;31;34374;-84
2023/03/10 12:30:42;;;;;;;;;;;;;;;19.44;41.47;97104.56;4502085;31;33871;-82
2023/03/10 12:33:28;;;;;;;;;;;;;;;20.08;40.47;97115.88;4505869;31;34385;-81
2023/03/10 12:36:08;;;;;;;;;;;;;;;19.90;40.73;97098.50;4514654;31;34098;-84
2023/03/10 12:38:35;;;;;;;;;;;;;;;19.65;41.42;97096.44;4514580;31;34984;-81
2023/03/10 12:41:03;;;;;;;;;;;;;;;19.50;41.75;97094.63;4514279;31;34491;-83
2023/03/10 12:43:42;;;;;;;;;;;;;;;18.96;42.39;97095.81;4513208;31;35150;-82
2023/03/10 12:46:10;;;;;;;;;;;;;;;20.09;40.38;97080.72;4514562;31;34129;-82
2023/03/10 12:48:39;;;;;;;;;;;;;;;20.08;41.11;97088.72;4512675;31;34827;-81
2023/03/10 12:51:08;;;;;;;;;;;;;;;20.51;39.99;97076.50;4504336;31;34469;-81
2023/03/10 12:53:47;;;;;;;;;;;;;;;19.69;41.61;97072.50;4498278;31;34989;-85
2023/03/10 12:56:14;;;;;;;;;;;;;;;20.70;40.53;97065.69;4497300;31;33938;-83
2023/03/10 12:58:47;;;;;;;;;;;;;;;21.07;38.82;97055.50;4498490;31;34275;-81
2023/03/10 13:01:16;;;;;;;;;;;;;;;20.28;40.37;97053.31;4498261;31;34929;-82